Time;durP1;ratioP1;P1;durP2;ratioP2;P2;SDS_P1;SDS_P2;PMS_P1;PMS_P2;Temp;Humidity;BMP_temperature;BMP_pressure;BME280_temperature;BME280_humidity;BME280_pressure;Samples;Min_cycle;Max_cycle;Signal;HPM_P1;HPM_P2
2021/04/30 00:01:56;;;;;;;28.80;4.27;;;7.30;99.90;;;;;;10115540;28;20055;-64
2021/04/30 00:06:57;;;;;;;9.93;3.42;;;7.40;99.90;;;;;;10111065;28;20063;-63
2021/04/30 00:11:59;;;;;;;13.98;4.72;;;7.30;99.90;;;;;;10113054;28;20082;-63
2021/04/30 00:17:01;;;;;;;10.95;4.32;;;7.30;99.90;;;;;;10112972;28;21592;-64
2021/04/30 00:22:03;;;;;;;13.02;3.45;;;7.40;99.90;;;;;;10115135;28;20070;-64
2021/04/30 00:27:05;;;;;;;12.30;3.47;;;7.40;99.90;;;;;;10110395;28;20063;-64
2021/04/30 00:32:07;;;;;;;15.90;3.58;;;7.40;99.90;;;;;;10113964;28;20431;-64
2021/04/30 00:37:09;;;;;;;8.93;3.22;;;7.40;99.90;;;;;;10112456;28;20109;-63
2021/04/30 00:42:15;;;;;;;14.85;3.72;;;7.40;99.90;;;;;;10116918;28;20043;-64
2021/04/30 00:47:30;;;;;;;18.50;3.65;;;7.40;99.90;;;;;;10108927;28;20081;-63
2021/04/30 00:52:31;;;;;;;10.80;3.15;;;7.40;99.90;;;;;;10106715;28;20050;-64
2021/04/30 00:57:35;;;;;;;13.68;3.10;;;7.50;99.90;;;;;;10114269;28;20133;-62
2021/04/30 01:02:39;;;;;;;8.82;3.13;;;7.50;99.90;;;;;;10113814;28;20063;-64
2021/04/30 01:07:40;;;;;;;21.42;4.35;;;7.50;99.90;;;;;;10108021;28;20711;-64
2021/04/30 01:12:43;;;;;;;15.60;4.25;;;7.50;99.90;;;;;;10108418;28;20432;-63
2021/04/30 01:17:45;;;;;;;13.85;3.45;;;7.50;99.90;;;;;;10107823;28;20104;-64
2021/04/30 01:22:49;;;;;;;14.25;3.95;;;7.50;99.90;;;;;;10105331;28;20055;-63
2021/04/30 01:27:51;;;;;;;18.85;3.72;;;7.50;99.90;;;;;;10113198;28;20061;-64
2021/04/30 01:32:53;;;;;;;9.23;3.67;;;7.50;99.90;;;;;;10108573;28;20062;-63
2021/04/30 01:37:56;;;;;;;14.68;3.25;;;7.50;99.90;;;;;;10115201;28;20768;-63
2021/04/30 01:43:03;;;;;;;23.38;5.05;;;7.60;99.90;;;;;;10110344;28;20058;-62
2021/04/30 01:48:09;;;;;;;17.85;3.58;;;7.50;99.90;;;;;;10111160;28;20810;-63
2021/04/30 01:53:14;;;;;;;16.83;3.25;;;7.80;99.90;;;;;;10111614;28;21401;-63
2021/04/30 01:58:16;;;;;;;19.92;3.38;;;7.60;99.90;;;;;;10112751;28;20893;-62
2021/04/30 02:03:17;;;;;;;15.67;3.23;;;7.40;99.90;;;;;;10108452;28;20688;-63
2021/04/30 02:08:20;;;;;;;19.70;3.95;;;7.60;99.90;;;;;;10118958;28;20055;-63
2021/04/30 02:13:22;;;;;;;14.32;3.42;;;7.60;99.90;;;;;;10120479;28;20887;-63
2021/04/30 02:18:25;;;;;;;19.63;4.40;;;7.70;99.90;;;;;;10123479;28;20067;-63
2021/04/30 02:23:27;;;;;;;24.25;3.47;;;7.70;99.90;;;;;;10119853;28;21703;-63
2021/04/30 02:28:28;;;;;;;18.42;3.13;;;7.80;99.90;;;;;;10119925;28;20063;-62
2021/04/30 02:33:30;;;;;;;22.63;2.83;;;7.80;99.90;;;;;;10119650;28;20074;-63
2021/04/30 02:38:33;;;;;;;18.23;3.67;;;7.80;99.90;;;;;;10121948;28;20680;-63
2021/04/30 02:43:35;;;;;;;17.58;3.20;;;7.80;99.90;;;;;;10116735;28;20758;-63
2021/04/30 02:48:37;;;;;;;28.55;3.90;;;7.80;99.90;;;;;;10117498;28;20654;-64
2021/04/30 02:53:39;;;;;;;17.60;3.05;;;7.90;99.90;;;;;;10119499;28;21725;-63
2021/04/30 02:58:41;;;;;;;20.70;3.83;;;7.90;99.90;;;;;;10117215;28;20094;-63
2021/04/30 03:03:42;;;;;;;20.13;3.58;;;7.90;99.90;;;;;;10115238;28;20098;-63
2021/04/30 03:08:45;;;;;;;24.58;3.85;;;7.90;99.90;;;;;;10117453;28;20866;-62
2021/04/30 03:13:47;;;;;;;;;;;7.90;99.90;;;;;;10114218;28;20055;-63
2021/04/30 03:18:48;;;;;;;14.45;3.40;;;7.90;99.90;;;;;;10114763;28;19937;-64
2021/04/30 03:23:51;;;;;;;36.83;4.80;;;7.90;99.90;;;;;;10115225;28;20053;-62
2021/04/30 03:28:52;;;;;;;17.08;3.95;;;7.90;99.90;;;;;;10116735;28;20185;-63
2021/04/30 03:33:53;;;;;;;20.70;4.00;;;7.90;99.90;;;;;;10120338;28;20069;-63
2021/04/30 03:38:59;;;;;;;19.20;4.15;;;8.20;99.90;;;;;;10113210;28;20691;-63
2021/04/30 03:44:01;;;;;;;27.83;6.63;;;7.90;99.90;;;;;;10112412;28;20054;-63
2021/04/30 03:49:05;;;;;;;34.03;5.38;;;7.90;99.90;;;;;;10110768;28;20660;-63
2021/04/30 03:54:07;;;;;;;24.83;4.28;;;7.90;99.90;;;;;;10118013;28;20182;-63
2021/04/30 03:59:08;;;;;;;19.70;4.63;;;8.30;99.90;;;;;;10112370;28;20053;-63
2021/04/30 04:04:10;;;;;;;29.73;4.72;;;7.90;99.90;;;;;;10114107;28;20097;-64
2021/04/30 04:09:12;;;;;;;15.70;3.50;;;7.90;99.90;;;;;;10115364;28;22110;-64
2021/04/30 04:14:14;;;;;;;28.23;4.35;;;7.90;99.90;;;;;;10118269;28;20062;-63
2021/04/30 04:19:17;;;;;;;19.23;4.30;;;7.90;99.90;;;;;;10111380;28;21652;-64
2021/04/30 04:24:19;;;;;;;;;;;7.80;99.90;;;;;;10112011;28;20110;-62
2021/04/30 04:29:21;;;;;;;18.20;4.70;;;7.80;99.90;;;;;;10114171;28;19938;-63
2021/04/30 04:34:22;;;;;;;19.30;4.97;;;7.70;99.90;;;;;;10111989;28;20047;-62
2021/04/30 04:39:25;;;;;;;31.35;7.60;;;7.80;99.90;;;;;;10115268;28;20704;-62
2021/04/30 04:44:28;;;;;;;;;;;7.80;99.90;;;;;;10108293;28;20073;-62
2021/04/30 04:49:29;;;;;;;24.48;6.80;;;7.90;99.90;;;;;;10113198;28;19962;-62
2021/04/30 04:54:31;;;;;;;34.03;6.00;;;8.00;99.90;;;;;;10115403;28;20475;-63
2021/04/30 04:59:33;;;;;;;18.05;5.93;;;8.00;99.90;;;;;;10107697;28;20059;-63
2021/04/30 05:04:34;;;;;;;23.90;5.38;;;8.00;99.90;;;;;;10112672;28;21468;-63
2021/04/30 05:09:36;;;;;;;25.45;7.20;;;8.10;99.90;;;;;;10113098;28;20063;-62
2021/04/30 05:14:38;;;;;;;16.52;6.00;;;8.10;99.90;;;;;;10110717;28;20538;-63
2021/04/30 05:19:39;;;;;;;19.20;6.60;;;8.20;99.90;;;;;;10106831;28;20051;-63
2021/04/30 05:24:43;;;;;;;18.77;6.03;;;8.20;99.90;;;;;;10108011;28;20061;-62
2021/04/30 05:29:45;;;;;;;17.52;7.05;;;8.20;99.90;;;;;;10102514;28;20058;-63
2021/04/30 05:34:46;;;;;;;26.65;7.97;;;8.30;99.90;;;;;;10107722;28;20061;-63
2021/04/30 05:39:48;;;;;;;27.73;7.05;;;8.30;99.90;;;;;;10108867;28;21943;-63
2021/04/30 05:44:50;;;;;;;19.73;7.88;;;8.40;99.90;;;;;;10119029;28;20431;-63
2021/04/30 05:49:51;;;;;;;22.10;7.88;;;8.50;99.90;;;;;;10118055;28;20057;-63
2021/04/30 05:54:53;;;;;;;28.35;8.65;;;8.50;99.90;;;;;;10114624;28;20739;-64
2021/04/30 05:59:55;;;;;;;27.67;8.10;;;8.60;99.90;;;;;;10113320;28;20073;-63
2021/04/30 06:04:56;;;;;;;21.48;7.53;;;8.60;99.90;;;;;;10116944;28;20556;-63
2021/04/30 06:09:58;;;;;;;20.85;9.65;;;8.70;99.90;;;;;;10117200;28;20590;-63
2021/04/30 06:15:00;;;;;;;27.73;9.83;;;8.70;99.90;;;;;;10117805;28;20051;-63
2021/04/30 06:20:01;;;;;;;27.70;9.73;;;8.70;99.90;;;;;;10120744;28;20154;-63
2021/04/30 06:25:05;;;;;;;44.85;11.25;;;8.60;99.90;;;;;;10114811;28;21010;-63
2021/04/30 06:30:07;;;;;;;38.55;11.20;;;8.50;99.90;;;;;;10119046;28;20882;-63
2021/04/30 06:35:09;;;;;;;45.45;14.73;;;8.50;99.90;;;;;;10111149;28;20691;-63
2021/04/30 06:40:12;;;;;;;34.15;14.38;;;8.70;99.90;;;;;;10113946;28;21643;-64
2021/04/30 06:45:13;;;;;;;32.92;15.32;;;8.90;99.90;;;;;;10112821;28;21078;-63
2021/04/30 06:50:15;;;;;;;35.10;15.35;;;9.10;99.90;;;;;;10111189;28;21838;-63
2021/04/30 06:55:17;;;;;;;31.52;14.13;;;9.30;99.90;;;;;;10112502;28;20066;-63
2021/04/30 07:00:19;;;;;;;37.60;15.00;;;9.50;99.90;;;;;;10117554;28;20530;-63
2021/04/30 07:05:20;;;;;;;40.40;14.82;;;9.50;99.90;;;;;;10119226;28;20118;-64
2021/04/30 07:10:24;;;;;;;34.90;12.35;;;9.50;99.90;;;;;;10116374;28;20047;-64
2021/04/30 07:15:25;;;;;;;41.05;14.60;;;9.40;99.90;;;;;;10114447;28;21067;-63
2021/04/30 07:20:27;;;;;;;32.50;12.27;;;9.40;99.90;;;;;;10112829;28;20090;-64
2021/04/30 07:25:30;;;;;;;32.05;13.57;;;9.40;99.90;;;;;;10110343;28;20054;-64
2021/04/30 07:30:31;;;;;;;31.00;12.90;;;9.50;99.90;;;;;;10108939;28;20527;-62
2021/04/30 07:35:32;;;;;;;31.05;13.82;;;9.60;99.90;;;;;;10113454;28;20059;-65
2021/04/30 07:40:37;;;;;;;38.83;14.43;;;9.60;99.90;;;;;;10108991;28;20805;-64
2021/04/30 07:45:40;;;;;;;32.22;16.27;;;9.60;99.90;;;;;;10112649;28;21460;-63
2021/04/30 07:50:42;;;;;;;34.10;17.75;;;9.40;99.90;;;;;;10120888;28;20062;-65
2021/04/30 07:55:44;;;;;;;35.17;16.60;;;9.30;99.90;;;;;;10114458;28;20601;-64
2021/04/30 08:00:46;;;;;;;27.93;14.37;;;10.80;99.90;;;;;;10118682;28;20778;-64
2021/04/30 08:05:48;;;;;;;37.80;15.98;;;9.40;99.90;;;;;;10114340;28;21897;-64
2021/04/30 08:10:50;;;;;;;40.67;16.27;;;9.10;99.90;;;;;;10115762;28;20047;-65
2021/04/30 08:15:52;;;;;;;40.97;15.70;;;8.90;99.90;;;;;;10115745;28;20058;-65
2021/04/30 08:20:53;;;;;;;29.38;12.60;;;8.70;99.90;;;;;;10114102;28;22094;-65
2021/04/30 08:25:56;;;;;;;38.83;11.90;;;8.40;99.90;;;;;;10112784;28;20061;-64
2021/04/30 08:31:04;;;;;;;47.28;12.45;;;8.60;99.90;;;;;;10398506;27;21848;-64
2021/04/30 08:36:06;;;;;;;42.67;12.57;;;8.30;99.90;;;;;;10400608;28;20040;-63
2021/04/30 08:41:08;;;;;;;31.80;10.68;;;8.30;99.90;;;;;;10402043;28;20055;-64
2021/04/30 08:46:13;;;;;;;29.58;10.85;;;8.60;99.90;;;;;;10396124;28;20165;-64
2021/04/30 08:51:14;;;;;;;36.10;11.63;;;8.10;99.90;;;;;;10399453;28;20040;-64
2021/04/30 08:56:17;;;;;;;25.48;10.48;;;8.20;99.90;;;;;;10404054;28;20051;-64
2021/04/30 09:01:19;;;;;;;30.58;11.18;;;8.00;99.90;;;;;;10404961;28;21359;-65
2021/04/30 09:06:32;;;;;;;31.33;9.63;;;8.20;99.90;;;;;;10399116;28;21076;-66
2021/04/30 09:11:35;;;;;;;29.70;9.77;;;7.70;99.90;;;;;;10398124;28;21001;-66
2021/04/30 09:16:57;;;;;;;38.72;9.77;;;8.10;99.90;;;;;;10400398;27;20055;-67
2021/04/30 09:22:00;;;;;;;26.07;10.67;;;7.80;99.90;;;;;;10397097;28;20464;-66
2021/04/30 09:27:04;;;;;;;28.38;10.80;;;7.70;99.90;;;;;;10393583;27;20059;-67
2021/04/30 09:32:11;;;;;;;34.30;10.45;;;7.80;99.90;;;;;;10396719;28;20476;-66
2021/04/30 09:37:15;;;;;;;26.15;10.30;;;7.50;99.90;;;;;;10396235;28;20797;-66
2021/04/30 09:42:17;;;;;;;76.25;12.57;;;8.10;99.90;;;;;;10363860;28;21443;-65
2021/04/30 09:47:22;;;;;;;42.95;12.30;;;7.90;99.90;;;;;;10367498;28;20855;-66
2021/04/30 09:52:26;;;;;;;49.10;14.30;;;8.10;99.90;;;;;;10371464;28;20496;-66
2021/04/30 09:57:28;;;;;;;;;;;8.20;99.90;;;;;;10366569;28;20186;-65
2021/04/30 10:02:31;;;;;;;60.70;11.98;;;7.80;99.90;;;;;;10372199;28;20843;-64
2021/04/30 10:07:34;;;;;;;50.28;12.05;;;7.70;99.90;;;;;;10367462;28;20055;-64
2021/04/30 10:12:37;;;;;;;59.80;12.65;;;7.80;99.90;;;;;;10371410;28;20055;-65
2021/04/30 10:17:40;;;;;;;48.03;12.77;;;7.80;99.90;;;;;;10369552;28;20655;-65
2021/04/30 10:22:43;;;;;;;49.25;13.48;;;8.10;99.90;;;;;;10370778;28;20052;-65
2021/04/30 10:27:46;;;;;;;;;;;8.10;99.90;;;;;;10368189;28;20063;-64
2021/04/30 10:32:51;;;;;;;48.03;11.98;;;8.40;99.90;;;;;;10364480;28;19928;-65
2021/04/30 10:37:58;;;;;;;38.65;12.32;;;8.60;99.90;;;;;;10362162;28;22135;-66
2021/04/30 10:43:17;;;;;;;72.45;18.95;;;8.90;99.90;;;;;;10368349;28;20063;-64
2021/04/30 10:48:20;;;;;;;42.05;13.77;;;8.70;99.90;;;;;;10369214;28;21189;-63
2021/04/30 10:53:27;;;;;;;45.37;13.87;;;8.90;99.90;;;;;;10366500;28;20160;-63
2021/04/30 10:58:34;;;;;;;56.40;13.07;;;9.10;99.90;;;;;;10378660;28;20603;-66
2021/04/30 11:03:36;;;;;;;55.95;12.43;;;9.30;99.90;;;;;;10357644;28;20740;-67
2021/04/30 11:08:52;;;;;;;46.27;13.80;;;9.40;99.90;;;;;;10363379;28;20048;-67
2021/04/30 11:14:22;;;;;;;35.17;12.85;;;9.70;99.90;;;;;;10360783;28;20052;-67
2021/04/30 11:19:26;;;;;;;33.53;12.98;;;9.80;99.90;;;;;;10360950;28;20796;-66
2021/04/30 11:24:57;;;;;;;36.85;11.65;;;10.00;99.90;;;;;;10361717;28;21377;-66
2021/04/30 11:30:14;;;;;;;38.65;11.00;;;10.20;99.90;;;;;;10358626;28;20162;-67
2021/04/30 11:35:17;;;;;;;30.75;10.73;;;10.60;99.90;;;;;;10358935;28;20431;-66
2021/04/30 11:40:20;;;;;;;31.38;10.48;;;10.50;99.90;;;;;;10361880;28;20075;-66
2021/04/30 11:45:23;;;;;;;34.67;11.20;;;10.20;99.90;;;;;;10360275;28;20048;-66
2021/04/30 11:50:25;;;;;;;;;;;10.00;99.90;;;;;;10355280;28;20180;-67
2021/04/30 11:55:26;;;;;;;33.95;12.85;;;9.70;99.90;;;;;;10355977;28;20671;-67
2021/04/30 12:00:30;;;;;;;37.38;13.07;;;9.50;99.90;;;;;;10353467;28;20171;-68
2021/04/30 12:05:33;;;;;;;34.40;11.73;;;9.30;99.90;;;;;;10356466;28;20760;-67
2021/04/30 12:10:36;;;;;;;;;;;9.20;99.90;;;;;;10355322;28;20539;-66
2021/04/30 12:15:40;;;;;;;25.00;11.00;;;9.30;99.90;;;;;;10356762;28;19928;-66
2021/04/30 12:20:43;;;;;;;24.52;11.32;;;9.50;99.90;;;;;;10356836;28;20087;-67
2021/04/30 12:25:45;;;;;;;;;;;9.50;99.90;;;;;;10355287;28;20110;-66
2021/04/30 12:30:48;;;;;;;31.75;11.48;;;9.50;99.90;;;;;;10357064;28;20398;-66
2021/04/30 12:35:52;;;;;;;27.95;10.68;;;9.80;99.90;;;;;;10357004;28;21577;-66
2021/04/30 12:40:54;;;;;;;23.60;11.55;;;9.70;99.90;;;;;;10356147;28;20113;-66
2021/04/30 12:45:56;;;;;;;22.80;11.80;;;9.70;99.00;;;;;;10355188;28;20083;-67
2021/04/30 12:50:59;;;;;;;21.50;10.50;;;9.70;97.70;;;;;;10357316;28;20072;-68
2021/04/30 12:56:00;;;;;;;21.47;10.77;;;9.60;96.60;;;;;;10354635;28;20125;-66
2021/04/30 13:01:05;;;;;;;16.30;9.30;;;9.70;96.70;;;;;;10359442;28;20536;-67
2021/04/30 13:06:10;;;;;;;17.63;9.07;;;9.80;95.90;;;;;;10354604;28;20059;-65
2021/04/30 13:11:15;;;;;;;14.65;7.57;;;9.80;95.00;;;;;;10294260;28;20616;-65
2021/04/30 13:16:16;;;;;;;14.05;8.07;;;9.90;94.00;;;;;;10210347;28;20084;-66
2021/04/30 13:21:19;;;;;;;12.05;7.53;;;9.90;93.60;;;;;;10216344;28;20176;-67
2021/04/30 13:26:22;;;;;;;17.20;6.57;;;10.20;93.50;;;;;;10215027;28;20773;-66
2021/04/30 13:31:24;;;;;;;8.68;5.50;;;10.70;92.00;;;;;;10214382;28;21091;-66
2021/04/30 13:36:26;;;;;;;9.15;4.45;;;11.20;89.90;;;;;;10215758;28;21849;-67
2021/04/30 13:41:36;;;;;;;6.25;4.85;;;11.80;86.10;;;;;;10217108;28;20086;-67
2021/04/30 13:46:37;;;;;;;6.70;4.03;;;12.30;85.70;;;;;;10216924;28;20159;-70
2021/04/30 13:51:40;;;;;;;9.25;4.28;;;12.90;79.90;;;;;;10220482;28;20537;-68
2021/04/30 13:56:41;;;;;;;9.55;3.88;;;13.30;80.70;;;;;;10215583;28;20058;-68
2021/04/30 14:01:42;;;;;;;7.20;4.28;;;14.20;78.10;;;;;;10214988;28;20061;-65
2021/04/30 14:06:45;;;;;;;7.28;4.72;;;14.50;73.00;;;;;;10216383;28;20054;-65
2021/04/30 14:11:46;;;;;;;8.98;4.78;;;14.60;69.30;;;;;;10215851;28;20192;-66
2021/04/30 14:16:48;;;;;;;6.45;5.00;;;14.50;67.40;;;;;;10222242;28;20777;-66
2021/04/30 14:21:50;;;;;;;7.28;4.20;;;15.00;66.70;;;;;;10214558;28;20053;-68
2021/04/30 14:26:51;;;;;;;7.05;4.43;;;15.50;63.90;;;;;;10213871;28;20065;-67
2021/04/30 14:31:53;;;;;;;6.43;4.30;;;15.70;60.20;;;;;;10214092;28;20057;-64
2021/04/30 14:36:56;;;;;;;38.63;6.47;;;15.50;58.40;;;;;;10212576;28;20050;-65
2021/04/30 14:41:57;;;;;;;11.80;4.15;;;15.30;56.50;;;;;;10210198;28;20058;-65
2021/04/30 14:46:58;;;;;;;6.93;4.25;;;15.00;57.00;;;;;;10214810;28;20060;-63
2021/04/30 14:52:01;;;;;;;12.70;4.50;;;14.90;58.20;;;;;;10214025;28;20049;-68
2021/04/30 14:57:02;;;;;;;6.95;3.90;;;14.70;59.20;;;;;;10212749;28;20050;-65
2021/04/30 15:02:03;;;;;;;10.05;3.92;;;14.50;60.60;;;;;;10209061;28;21261;-67
2021/04/30 15:07:06;;;;;;;11.23;3.95;;;14.20;64.60;;;;;;10212386;28;20247;-67
2021/04/30 15:12:07;;;;;;;7.38;3.08;;;14.00;64.50;;;;;;10213946;28;20192;-67
2021/04/30 15:17:09;;;;;;;7.63;3.20;;;14.10;67.30;;;;;;10210462;28;20053;-65
2021/04/30 15:22:11;;;;;;;8.35;2.78;;;14.10;68.30;;;;;;10211988;28;20054;-67
2021/04/30 15:27:13;;;;;;;4.97;2.83;;;14.10;69.90;;;;;;10213420;28;20049;-70
2021/04/30 15:32:14;;;;;;;8.02;3.28;;;13.90;71.80;;;;;;10207860;28;21750;-67
2021/04/30 15:37:16;;;;;;;12.23;3.60;;;13.70;72.80;;;;;;10210630;28;20177;-66
2021/04/30 15:42:18;;;;;;;6.80;3.03;;;13.30;73.90;;;;;;10209162;28;20188;-66
2021/04/30 15:47:19;;;;;;;10.55;3.63;;;13.00;75.90;;;;;;10210803;28;20084;-65
2021/04/30 15:52:21;;;;;;;10.52;3.15;;;12.80;77.40;;;;;;10209821;28;20669;-64
2021/04/30 15:57:23;;;;;;;11.60;3.40;;;12.80;77.70;;;;;;10209655;28;20082;-66
2021/04/30 16:02:25;;;;;;;15.43;3.97;;;12.70;77.90;;;;;;10209292;28;20605;-64
2021/04/30 16:07:29;;;;;;;8.77;3.55;;;12.60;79.90;;;;;;10211563;28;20100;-66
2021/04/30 16:12:32;;;;;;;8.27;3.30;;;12.70;79.50;;;;;;10210143;28;20136;-66
2021/04/30 16:17:33;;;;;;;6.28;2.83;;;12.80;79.90;;;;;;10210078;28;20138;-65
2021/04/30 16:22:36;;;;;;;11.20;4.38;;;12.80;80.20;;;;;;10215479;28;20868;-65
2021/04/30 16:27:37;;;;;;;11.15;3.42;;;12.80;79.40;;;;;;10213641;28;21078;-64
2021/04/30 16:32:38;;;;;;;9.05;3.90;;;12.80;79.80;;;;;;10207310;28;20057;-65
2021/04/30 16:37:41;;;;;;;15.82;3.33;;;12.50;80.20;;;;;;10209013;28;20049;-66
2021/04/30 16:42:42;;;;;;;8.60;3.83;;;12.30;81.20;;;;;;10209911;28;20080;-66
2021/04/30 16:47:44;;;;;;;8.05;3.75;;;12.20;80.30;;;;;;10207920;28;20084;-65
2021/04/30 16:52:46;;;;;;;8.38;2.90;;;11.90;80.00;;;;;;10214174;28;20688;-66
2021/04/30 16:57:48;;;;;;;12.85;3.13;;;11.70;82.10;;;;;;10214837;28;20135;-66
2021/04/30 17:02:50;;;;;;;9.38;4.47;;;11.60;82.80;;;;;;10218306;28;20544;-64
2021/04/30 17:07:52;;;;;;;10.75;3.15;;;11.40;83.90;;;;;;10217201;28;20049;-65
2021/04/30 17:12:53;;;;;;;7.50;3.10;;;11.20;84.50;;;;;;10216532;28;20054;-66
2021/04/30 17:17:55;;;;;;;9.57;3.45;;;11.20;84.40;;;;;;10222712;28;20050;-65
2021/04/30 17:22:57;;;;;;;8.45;3.35;;;11.10;84.70;;;;;;10217102;28;20140;-64
2021/04/30 17:27:58;;;;;;;11.67;3.70;;;9.50;83.80;;;;;;10216073;28;21367;-66
2021/04/30 17:33:00;;;;;;;6.72;2.70;;;11.00;85.20;;;;;;10214457;28;20096;-66
2021/04/30 17:38:02;;;;;;;15.45;6.60;;;11.00;85.80;;;;;;10215450;28;20689;-64
2021/04/30 17:43:04;;;;;;;9.32;3.33;;;10.80;84.90;;;;;;10215041;28;20582;-66
2021/04/30 17:48:05;;;;;;;9.20;3.33;;;10.70;85.90;;;;;;10216196;28;20053;-66
2021/04/30 17:53:08;;;;;;;10.02;3.40;;;10.60;87.40;;;;;;10216168;28;20110;-65
2021/04/30 17:58:09;;;;;;;12.65;3.47;;;10.60;88.40;;;;;;10214555;28;20045;-65
2021/04/30 18:03:10;;;;;;;14.32;4.30;;;10.40;88.70;;;;;;10215113;28;20096;-66
2021/04/30 18:08:13;;;;;;;14.07;4.10;;;10.30;89.00;;;;;;10215170;28;20993;-65
2021/04/30 18:13:14;;;;;;;13.02;3.17;;;10.20;89.60;;;;;;10213416;28;20050;-65
2021/04/30 18:18:16;;;;;;;11.30;3.80;;;10.00;90.10;;;;;;10214427;28;21458;-66
2021/04/30 18:23:19;;;;;;;14.02;3.67;;;9.80;90.80;;;;;;10216212;28;20065;-65
2021/04/30 18:28:20;;;;;;;10.80;4.13;;;9.50;91.50;;;;;;10212198;28;20064;-63
2021/04/30 18:33:22;;;;;;;12.02;4.63;;;9.20;92.10;;;;;;10213553;28;21164;-64
2021/04/30 18:38:24;;;;;;;12.73;4.28;;;8.90;92.40;;;;;;10213443;28;20046;-65
2021/04/30 18:43:26;;;;;;;12.77;4.25;;;8.70;92.70;;;;;;10213982;28;22436;-65
2021/04/30 18:48:27;;;;;;;15.95;5.10;;;8.40;93.20;;;;;;10211202;28;20153;-64
2021/04/30 18:53:29;;;;;;;14.05;3.95;;;8.20;93.90;;;;;;10210564;28;20053;-66
2021/04/30 18:58:31;;;;;;;18.23;4.87;;;8.00;94.80;;;;;;10209734;28;21821;-66
2021/04/30 19:03:32;;;;;;;14.90;4.80;;;7.70;95.10;;;;;;10210416;28;20490;-64
2021/04/30 19:08:35;;;;;;;9.57;4.60;;;7.40;95.40;;;;;;10211536;28;20058;-63
2021/04/30 19:13:36;;;;;;;18.07;5.13;;;7.30;96.30;;;;;;10209469;28;20628;-65
2021/04/30 19:18:38;;;;;;;12.68;5.40;;;7.10;96.40;;;;;;10204683;28;21263;-63
2021/04/30 19:23:41;;;;;;;11.65;5.72;;;6.90;97.00;;;;;;10208631;28;20065;-65
2021/04/30 19:28:43;;;;;;;16.65;5.05;;;6.60;96.90;;;;;;10207900;28;20065;-65
2021/04/30 19:33:44;;;;;;;10.50;5.03;;;6.40;97.20;;;;;;10209648;28;20066;-65
2021/04/30 19:38:47;;;;;;;19.23;6.80;;;6.20;97.50;;;;;;10211533;28;20144;-64
2021/04/30 19:43:48;;;;;;;12.47;6.23;;;7.70;98.00;;;;;;10210397;28;20054;-65
2021/04/30 19:48:50;;;;;;;12.93;6.30;;;5.90;97.60;;;;;;10216848;28;22452;-65
2021/04/30 19:53:52;;;;;;;14.38;7.55;;;5.70;97.80;;;;;;10207258;28;21086;-66
2021/04/30 19:58:53;;;;;;;20.67;7.17;;;5.50;97.90;;;;;;10211183;28;20881;-63
2021/04/30 20:03:56;;;;;;;22.75;9.07;;;5.40;98.00;;;;;;10207538;28;20655;-66
2021/04/30 20:08:59;;;;;;;16.00;6.88;;;5.20;98.10;;;;;;10208849;28;20156;-64
2021/04/30 20:14:00;;;;;;;47.88;19.67;;;5.10;98.40;;;;;;10210985;28;21761;-65
2021/04/30 20:19:02;;;;;;;20.63;8.57;;;5.00;98.60;;;;;;10209745;28;20046;-65
2021/04/30 20:24:05;;;;;;;18.65;7.68;;;5.00;99.10;;;;;;10209612;28;20581;-64
2021/04/30 20:29:07;;;;;;;18.70;8.88;;;4.70;99.90;;;;;;10208454;28;20069;-65
2021/04/30 20:34:08;;;;;;;33.05;10.75;;;4.90;99.00;;;;;;10209672;28;20092;-64
2021/04/30 20:39:10;;;;;;;19.05;8.98;;;4.90;99.30;;;;;;10207410;28;20057;-66
2021/04/30 20:44:11;;;;;;;15.17;8.43;;;4.80;99.20;;;;;;10204958;28;20054;-64
2021/04/30 20:49:13;;;;;;;17.60;8.88;;;4.70;99.10;;;;;;10205896;28;20184;-64
2021/04/30 20:54:15;;;;;;;27.95;9.27;;;4.60;99.20;;;;;;10208919;28;21626;-64
2021/04/30 20:59:17;;;;;;;15.43;9.97;;;4.60;99.20;;;;;;10209368;28;20081;-65
2021/04/30 21:04:18;;;;;;;22.00;9.20;;;4.50;99.20;;;;;;10205309;28;20791;-65
2021/04/30 21:09:20;;;;;;;20.83;9.52;;;4.40;99.20;;;;;;10204986;28;20049;-65
2021/04/30 21:14:29;;;;;;;22.37;10.73;;;4.30;99.40;;;;;;10204919;28;20053;-66
2021/04/30 21:19:33;;;;;;;22.25;9.27;;;4.20;99.70;;;;;;10209401;28;20058;-64
2021/04/30 21:24:37;;;;;;;69.57;26.13;;;4.20;99.70;;;;;;10210795;28;20065;-65
2021/04/30 21:29:39;;;;;;;54.78;23.08;;;4.10;99.80;;;;;;10209911;28;20054;-65
2021/04/30 21:34:41;;;;;;;26.65;11.50;;;3.90;99.90;;;;;;10211790;28;20146;-65
2021/04/30 21:39:43;;;;;;;27.40;12.38;;;4.00;99.90;;;;;;10216059;28;20046;-65
2021/04/30 21:44:45;;;;;;;23.00;11.90;;;4.10;99.90;;;;;;10204116;28;20097;-63
2021/04/30 21:49:46;;;;;;;21.23;10.25;;;4.00;99.90;;;;;;10212329;28;20057;-66
2021/04/30 21:54:48;;;;;;;15.82;8.90;;;4.00;99.90;;;;;;10217989;28;21829;-64
2021/04/30 21:59:50;;;;;;;32.30;10.93;;;4.00;99.90;;;;;;10215172;28;20053;-63
2021/04/30 22:04:52;;;;;;;19.48;8.93;;;3.90;99.90;;;;;;10215444;28;20738;-65
2021/04/30 22:09:54;;;;;;;20.85;8.45;;;3.90;99.90;;;;;;10216107;28;20136;-65
2021/04/30 22:14:57;;;;;;;29.67;8.70;;;3.60;99.90;;;;;;10217509;28;20054;-64
2021/04/30 22:19:58;;;;;;;26.33;8.60;;;4.10;99.90;;;;;;10211439;28;21674;-65
2021/04/30 22:25:01;;;;;;;22.77;9.30;;;4.00;99.90;;;;;;10215002;28;20869;-64
2021/04/30 22:30:03;;;;;;;26.83;10.48;;;4.00;99.90;;;;;;10211429;28;20516;-65
2021/04/30 22:35:06;;;;;;;20.45;10.13;;;4.00;99.90;;;;;;10214093;28;20180;-64
2021/04/30 22:40:10;;;;;;;13.75;8.27;;;3.90;99.90;;;;;;10213922;28;20080;-64
2021/04/30 22:45:13;;;;;;;22.27;7.70;;;4.00;99.90;;;;;;10212587;28;20177;-64
2021/04/30 22:50:14;;;;;;;15.25;6.97;;;3.90;99.90;;;;;;10212851;28;20053;-65
2021/04/30 22:55:17;;;;;;;14.45;6.40;;;4.00;99.90;;;;;;10212227;28;20064;-65
2021/04/30 23:00:19;;;;;;;12.27;6.18;;;4.00;99.90;;;;;;10209668;28;21748;-65
2021/04/30 23:05:21;;;;;;;14.63;7.10;;;4.10;99.90;;;;;;10211836;28;20119;-66
2021/04/30 23:10:23;;;;;;;18.77;6.60;;;4.20;99.90;;;;;;10209198;28;20507;-64
2021/04/30 23:15:25;;;;;;;13.40;6.53;;;4.20;99.90;;;;;;10209711;28;20049;-64
2021/04/30 23:20:27;;;;;;;17.20;6.90;;;4.20;99.90;;;;;;10210423;28;20084;-65
2021/04/30 23:25:29;;;;;;;23.15;6.75;;;4.20;99.90;;;;;;10208548;28;21504;-65
2021/04/30 23:30:30;;;;;;;23.93;8.27;;;4.10;99.90;;;;;;10208899;28;21016;-64
2021/04/30 23:35:32;;;;;;;24.05;7.32;;;4.20;99.90;;;;;;10210742;28;20104;-63
2021/04/30 23:40:34;;;;;;;15.65;7.10;;;4.30;99.90;;;;;;10209541;28;20798;-64
2021/04/30 23:45:36;;;;;;;17.33;6.60;;;4.30;99.90;;;;;;10209579;28;20222;-64
2021/04/30 23:50:37;;;;;;;33.10;7.55;;;4.30;99.90;;;;;;10210916;28;20058;-65
2021/04/30 23:55:39;;;;;;;13.82;7.03;;;4.30;99.90;;;;;;10208623;28;20255;-64
